PDT,Max TemperatureF,Mean TemperatureF,Min TemperatureF,Max Dew PointF,MeanDew PointF,Min DewpointF,Max Humidity, Mean Humidity, Min Humidity, Max Sea Level PressureIn, Mean Sea Level PressureIn, Min Sea Level PressureIn, Max VisibilityMiles, Mean VisibilityMiles, Min VisibilityMiles, Max Wind SpeedMPH, Mean Wind SpeedMPH, Max Gust SpeedMPH,PrecipitationIn, CloudCover, Events, WindDirDegrees
2013-7-1,106,88,72,67,61,58,64,44,24,29.91,29.86,29.81,10,10,10,12,7,,0.00,0,,174
2013-7-2,105,92,79,68,60,53,58,39,19,30.00,29.92,29.83,10,10,10,13,7,,0.00,0,Rain-Thunderstorm,195
2013-7-3,96,84,73,54,47,33,48,30,12,30.01,29.94,29.84,10,10,10,17,10,23,0.00,0,,206
2013-7-4,90,79,69,49,38,31,49,24,15,29.95,29.88,29.78,10,10,10,16,12,25,0.00,0,,212
2013-7-5,82,71,60,49,44,35,62,41,20,29.91,29.86,29.80,10,10,10,18,10,24,0.00,0,,202
2013-7-6,89,74,60,50,47,46,64,43,24,29.93,29.84,29.75,10,10,5,12,7,16,0.00,0,,194
2013-7-7,93,76,61,52,46,35,62,37,15,29.86,29.79,29.72,10,10,10,12,6,,0.00,0,,168
2013-7-8,90,78,66,51,45,37,56,34,15,30.00,29.93,29.81,10,10,2,15,11,18,0.00,0,,202
2013-7-9,98,80,64,47,42,31,50,30,10,30.07,29.99,29.90,10,10,10,12,6,,0.00,0,,130
2013-7-10,97,84,70,49,41,29,44,25,9,29.93,29.86,29.74,10,10,10,16,9,22,0.00,0,,206
2013-7-11,87,76,64,47,35,22,47,26,10,29.91,29.86,29.80,10,10,10,13,10,21,0.00,0,,203
2013-7-12,84,72,59,43,35,24,53,30,11,29.99,29.90,29.86,10,10,10,14,8,20,0.00,0,,215
2013-7-13,84,70,55,43,38,31,60,34,15,30.14,30.07,30.01,10,10,10,10,7,,0.00,0,,195
2013-7-14,91,74,57,41,36,23,53,27,9,30.08,29.99,29.87,10,10,10,10,6,20,0.00,0,,163
2013-7-15,93,78,64,42,36,29,39,24,11,29.97,29.91,29.83,10,10,10,12,7,,0.00,0,,171
2013-7-16,89,74,60,63,46,40,69,39,22,29.93,29.83,29.75,10,10,10,16,8,21,0.02,0,Rain-Thunderstorm,173
2013-7-17,96,82,70,54,46,34,55,30,12,30.03,29.95,29.81,10,10,10,18,9,24,0.00,0,,218
2013-7-18,97,81,66,46,36,27,37,22,9,30.12,30.04,29.96,10,10,10,12,7,,0.00,0,,181
2013-7-19,100,82,64,45,41,32,45,25,10,30.03,29.95,29.86,10,10,10,12,6,,0.00,0,,136
2013-7-20,99,82,66,45,37,11,40,23,4,29.93,29.85,29.76,10,10,10,13,7,,0.00,0,,195
2013-7-21,98,81,64,44,35,25,43,21,9,29.84,29.78,29.72,10,10,10,13,9,21,0.00,0,,200
2013-7-22,97,84,70,47,39,32,41,23,10,29.89,29.85,29.78,10,10,9,15,10,24,0.00,0,,207
2013-7-23,100,82,66,46,39,28,47,23,8,29.98,29.91,29.84,10,10,5,10,7,,0.00,0,,181
2013-7-24,99,86,73,48,39,26,38,22,9,29.95,29.90,29.85,10,10,10,13,8,20,0.00,0,,189
2013-7-25,100,84,70,44,34,15,39,20,5,29.99,29.94,29.91,10,10,10,12,8,,0.00,0,,195
2013-7-26,100,83,66,42,33,16,36,19,5,30.03,29.97,29.90,10,10,10,14,7,17,0.00,0,,189
2013-7-27,90,79,69,49,39,25,46,27,10,30.03,29.94,29.83,10,10,6,15,9,18,0.00,0,,196
2013-7-28,88,74,62,42,37,29,43,27,12,29.90,29.85,29.79,10,10,10,16,10,17,0.00,1,,206
2013-7-29,91,76,61,42,37,28,46,27,11,29.91,29.87,29.82,10,10,10,14,8,,0.00,0,,200
2013-7-30,91,78,66,45,41,36,44,28,15,30.04,29.99,29.89,10,10,10,14,7,,0.00,0,,190
2013-7-31,88,75,63,49,43,41,45,33,21,30.03,29.97,29.87,10,10,10,12,6,,0.00,0,,142